Wetterdaten: Woche 13.07.15 - 19.07.15 (KW29)
Datum Zeit Temp. Aussen +5cm Feuchte Auss BlattFeu 1 Luftdruck Regen Sonnenschein Regendauer Solar Windben
13.07.2015 00:00 16,8 C 15,6 C 84 % 0 lf 1017,4 hPa 0,0 l/m 0,00 h 0,00 h 0 W/m 17,4 km/h (3 Bft)
13.07.2015 01:00 16,8 C 15,2 C 83 % 0 lf 1017,2 hPa 0,0 l/m 0,00 h 0,00 h 0 W/m 17,7 km/h (3 Bft)
13.07.2015 02:00 16,4 C 15,0 C 84 % 0 lf 1016,5 hPa 0,0 l/m 0,00 h 0,00 h 0 W/m 14,4 km/h (3 Bft)
13.07.2015 03:00 16,3 C 15,0 C 85 % 0 lf 1016,5 hPa 0,0 l/m 0,00 h 0,00 h 0 W/m 11,8 km/h (2 Bft)
13.07.2015 04:00 16,5 C 15,0 C 85 % 0 lf 1016,4 hPa 0,0 l/m 0,00 h 0,00 h 0 W/m 12,5 km/h (3 Bft)
13.07.2015 05:00 16,6 C 15,3 C 85 % 0 lf 1016,3 hPa 0,0 l/m 0,00 h 0,00 h 7 W/m 17,0 km/h (3 Bft)
13.07.2015 06:00 16,6 C 15,6 C 85 % 0 lf 1016,2 hPa 0,0 l/m 0,00 h 0,00 h 17 W/m 14,1 km/h (3 Bft)
13.07.2015 07:00 16,7 C 15,6 C 86 % 0 lf 1016,0 hPa 0,0 l/m 0,00 h 0,00 h 41 W/m 15,8 km/h (3 Bft)
13.07.2015 08:00 16,8 C 15,6 C 87 % 0 lf 1016,2 hPa 0,0 l/m 0,00 h 0,03 h 56 W/m 16,2 km/h (3 Bft)
13.07.2015 09:00 16,9 C 16,0 C 89 % 0 lf 1016,3 hPa 0,0 l/m 0,00 h 0,00 h 96 W/m 16,0 km/h (3 Bft)
13.07.2015 10:00 16,9 C 15,3 C 92 % 12 lf 1016,4 hPa 0,0 l/m 0,00 h 0,27 h 128 W/m 18,2 km/h (3 Bft)
13.07.2015 11:00 17,1 C 15,9 C 94 % 2 lf 1016,0 hPa 0,0 l/m 0,00 h 0,07 h 117 W/m 17,9 km/h (3 Bft)
13.07.2015 12:00 17,3 C 15,9 C 94 % 14 lf 1015,7 hPa 0,8 l/m 0,00 h 0,97 h 141 W/m 16,4 km/h (3 Bft)
13.07.2015 13:00 17,9 C 16,6 C 95 % 15 lf 1015,8 hPa 0,4 l/m 0,00 h 0,97 h 226 W/m 19,6 km/h (3 Bft)
13.07.2015 14:00 18,5 C 17,0 C 94 % 8 lf 1015,8 hPa 0,2 l/m 0,00 h 0,10 h 255 W/m 21,7 km/h (4 Bft)
13.07.2015 15:00 19,3 C 17,4 C 91 % 3 lf 1015,7 hPa 0,0 l/m 0,07 h 0,13 h 278 W/m 23,5 km/h (4 Bft)
13.07.2015 16:00 18,8 C 16,6 C 91 % 12 lf 1015,6 hPa 0,2 l/m 0,00 h 0,50 h 147 W/m 19,4 km/h (3 Bft)
13.07.2015 17:00 18,4 C 16,7 C 94 % 11 lf 1015,4 hPa 0,2 l/m 0,00 h 0,43 h 119 W/m 19,3 km/h (3 Bft)
13.07.2015 18:00 18,2 C 16,6 C 95 % 15 lf 1015,0 hPa 0,6 l/m 0,00 h 0,90 h 68 W/m 15,3 km/h (3 Bft)
13.07.2015 19:00 18,1 C 16,7 C 96 % 15 lf 1014,9 hPa 0,6 l/m 0,00 h 0,77 h 61 W/m 21,7 km/h (4 Bft)
13.07.2015 20:00 17,8 C 16,1 C 96 % 15 lf 1015,0 hPa 0,2 l/m 0,00 h 0,40 h 21 W/m 23,9 km/h (4 Bft)
13.07.2015 21:00 17,4 C 16,0 C 97 % 15 lf 1015,1 hPa 0,0 l/m 0,00 h 0,10 h 8 W/m 18,4 km/h (3 Bft)
13.07.2015 22:00 17,2 C 15,6 C 97 % 15 lf 1015,4 hPa 0,0 l/m 0,00 h 0,10 h 0 W/m 15,6 km/h (3 Bft)
13.07.2015 23:00 17,1 C 15,6 C 97 % 15 lf 1015,3 hPa 0,0 l/m 0,00 h 0,23 h 0 W/m 17,3 km/h (3 Bft)
14.07.2015 00:00 16,9 C 15,3 C 97 % 15 lf 1015,2 hPa 0,2 l/m 0,00 h 0,68 h 0 W/m 18,5 km/h (3 Bft)
14.07.2015 01:00 16,7 C 15,3 C 98 % 15 lf 1014,8 hPa 0,2 l/m 0,00 h 0,03 h 0 W/m 15,0 km/h (3 Bft)
14.07.2015 02:00 16,8 C 15,6 C 98 % 15 lf 1014,5 hPa 0,0 l/m 0,00 h 0,03 h 0 W/m 17,8 km/h (3 Bft)
14.07.2015 03:00 16,8 C 15,6 C 98 % 15 lf 1014,3 hPa 0,0 l/m 0,00 h 0,00 h 0 W/m 16,7 km/h (3 Bft)
14.07.2015 04:00 16,8 C 15,6 C 98 % 15 lf 1014,1 hPa 0,0 l/m 0,00 h 0,00 h 0 W/m 18,6 km/h (3 Bft)
14.07.2015 05:00 16,8 C 15,6 C 98 % 15 lf 1014,0 hPa 0,2 l/m 0,00 h 0,27 h 7 W/m 15,7 km/h (3 Bft)
14.07.2015 06:00 16,9 C 15,6 C 98 % 15 lf 1014,2 hPa 0,0 l/m 0,00 h 0,23 h 14 W/m 18,7 km/h (3 Bft)
14.07.2015 07:00 17,0 C 15,7 C 98 % 14 lf 1014,4 hPa 0,0 l/m 0,00 h 0,03 h 40 W/m 19,3 km/h (3 Bft)
14.07.2015 08:00 17,3 C 16,0 C 98 % 1 lf 1014,5 hPa 0,0 l/m 0,00 h 0,00 h 54 W/m 19,6 km/h (3 Bft)
14.07.2015 09:00 17,5 C 16,1 C 98 % 3 lf 1015,0 hPa 0,0 l/m 0,00 h 0,10 h 104 W/m 19,7 km/h (3 Bft)
14.07.2015 10:00 17,9 C 16,7 C 97 % 0 lf 1015,2 hPa 0,0 l/m 0,00 h 0,00 h 121 W/m 15,4 km/h (3 Bft)
14.07.2015 11:00 18,6 C 17,0 C 95 % 0 lf 1015,5 hPa 0,0 l/m 0,00 h 0,03 h 187 W/m 19,9 km/h (4 Bft)
14.07.2015 12:00 19,4 C 18,5 C 92 % 3 lf 1015,8 hPa 0,0 l/m 0,25 h 0,07 h 257 W/m 18,3 km/h (3 Bft)
14.07.2015 13:00 19,7 C 17,8 C 90 % 8 lf 1016,1 hPa 0,0 l/m 0,03 h 0,20 h 200 W/m 17,2 km/h (3 Bft)
14.07.2015 14:00 21,3 C 21,1 C 86 % 0 lf 1016,3 hPa 0,0 l/m 0,33 h 0,00 h 383 W/m 21,1 km/h (4 Bft)
14.07.2015 15:00 21,5 C 20,4 C 82 % 2 lf 1016,4 hPa 0,0 l/m 0,27 h 0,10 h 338 W/m 23,4 km/h (4 Bft)
14.07.2015 16:00 21,3 C 20,5 C 82 % 0 lf 1016,6 hPa 0,0 l/m 0,23 h 0,00 h 286 W/m 25,2 km/h (4 Bft)
14.07.2015 17:00 22,0 C 21,2 C 78 % 0 lf 1016,8 hPa 0,0 l/m 0,80 h 0,00 h 360 W/m 24,3 km/h (4 Bft)
14.07.2015 18:00 21,9 C 20,6 C 78 % 0 lf 1017,0 hPa 0,0 l/m 0,07 h 0,00 h 169 W/m 20,9 km/h (4 Bft)
14.07.2015 19:00 20,9 C 19,2 C 80 % 0 lf 1017,3 hPa 0,0 l/m 0,03 h 0,00 h 99 W/m 23,5 km/h (4 Bft)
14.07.2015 20:00 19,7 C 18,1 C 84 % 0 lf 1017,7 hPa 0,0 l/m 0,03 h 0,00 h 32 W/m 19,5 km/h (3 Bft)
14.07.2015 21:00 19,0 C 17,3 C 86 % 0 lf 1018,1 hPa 0,0 l/m 0,00 h 0,00 h 10 W/m 14,0 km/h (3 Bft)
14.07.2015 22:00 18,4 C 16,9 C 88 % 0 lf 1018,9 hPa 0,0 l/m 0,00 h 0,00 h 0 W/m 11,9 km/h (2 Bft)
14.07.2015 23:00 18,1 C 16,2 C 91 % 2 lf 1019,0 hPa 0,0 l/m 0,00 h 0,00 h 0 W/m 6,4 km/h (2 Bft)
15.07.2015 00:00 17,5 C 15,6 C 92 % 1 lf 1019,0 hPa 0,0 l/m 0,00 h 0,00 h 0 W/m 4,8 km/h (1 Bft)
15.07.2015 01:00 17,1 C 15,9 C 93 % 1 lf 1019,1 hPa 0,0 l/m 0,00 h 0,00 h 0 W/m 8,4 km/h (2 Bft)
15.07.2015 02:00 17,1 C 16,1 C 95 % 1 lf 1019,2 hPa 0,0 l/m 0,00 h 0,00 h 0 W/m 6,7 km/h (2 Bft)
15.07.2015 03:00 17,2 C 16,1 C 95 % 1 lf 1019,2 hPa 0,0 l/m 0,00 h 0,00 h 0 W/m 5,0 km/h (1 Bft)
15.07.2015 04:00 17,1 C 16,1 C 95 % 1 lf 1019,1 hPa 0,0 l/m 0,00 h 0,00 h 0 W/m 4,5 km/h (1 Bft)
15.07.2015 05:00 17,0 C 15,8 C 94 % 1 lf 1019,1 hPa 0,0 l/m 0,00 h 0,00 h 5 W/m 3,1 km/h (1 Bft)
15.07.2015 06:00 17,0 C 16,1 C 95 % 1 lf 1019,2 hPa 0,0 l/m 0,00 h 0,00 h 15 W/m 4,5 km/h (1 Bft)
15.07.2015 07:00 17,3 C 16,8 C 95 % 0 lf 1019,1 hPa 0,0 l/m 0,00 h 0,00 h 57 W/m 4,8 km/h (1 Bft)
15.07.2015 08:00 18,0 C 17,7 C 94 % 0 lf 1019,2 hPa 0,0 l/m 0,00 h 0,00 h 122 W/m 8,3 km/h (2 Bft)
15.07.2015 09:00 19,1 C 19,1 C 89 % 0 lf 1019,1 hPa 0,0 l/m 0,33 h 0,00 h 248 W/m 9,7 km/h (2 Bft)
15.07.2015 10:00 20,4 C 20,1 C 82 % 0 lf 1019,0 hPa 0,0 l/m 0,27 h 0,00 h 259 W/m 12,4 km/h (3 Bft)
15.07.2015 11:00 22,0 C 23,0 C 75 % 0 lf 1018,9 hPa 0,0 l/m 0,53 h 0,00 h 525 W/m 13,2 km/h (3 Bft)
15.07.2015 12:00 24,2 C 24,9 C 68 % 0 lf 1018,7 hPa 0,0 l/m 0,92 h 0,00 h 574 W/m 17,1 km/h (3 Bft)
15.07.2015 13:00 24,3 C 23,2 C 68 % 0 lf 1018,1 hPa 0,0 l/m 0,17 h 0,00 h 344 W/m 14,8 km/h (3 Bft)
15.07.2015 14:00 24,6 C 23,8 C 68 % 0 lf 1017,8 hPa 0,0 l/m 0,27 h 0,00 h 366 W/m 15,2 km/h (3 Bft)
15.07.2015 15:00 24,8 C 23,3 C 69 % 1 lf 1017,6 hPa 0,0 l/m 0,00 h 0,07 h 232 W/m 17,1 km/h (3 Bft)
15.07.2015 16:00 23,3 C 20,6 C 81 % 7 lf 1017,8 hPa 0,2 l/m 0,47 h 0,27 h 314 W/m 13,5 km/h (3 Bft)
15.07.2015 17:00 23,5 C 22,6 C 79 % 0 lf 1017,6 hPa 0,0 l/m 0,17 h 0,00 h 243 W/m 17,5 km/h (3 Bft)
15.07.2015 18:00 22,9 C 21,5 C 78 % 0 lf 1017,5 hPa 0,0 l/m 0,00 h 0,00 h 135 W/m 14,8 km/h (3 Bft)
15.07.2015 19:00 22,8 C 21,2 C 80 % 0 lf 1017,1 hPa 0,0 l/m 0,10 h 0,00 h 99 W/m 14,4 km/h (3 Bft)
15.07.2015 20:00 22,3 C 20,5 C 82 % 0 lf 1017,1 hPa 0,0 l/m 0,00 h 0,00 h 47 W/m 10,4 km/h (2 Bft)
15.07.2015 21:00 21,6 C 19,7 C 86 % 0 lf 1017,2 hPa 0,0 l/m 0,27 h 0,00 h 18 W/m 6,0 km/h (2 Bft)
15.07.2015 22:00 21,0 C 18,8 C 88 % 0 lf 1017,6 hPa 0,0 l/m 0,00 h 0,00 h 0 W/m 3,1 km/h (1 Bft)
15.07.2015 23:00 20,4 C 18,3 C 90 % 0 lf 1017,8 hPa 0,0 l/m 0,00 h 0,00 h 0 W/m 0,0 km/h (0 Bft)
16.07.2015 00:00 20,0 C 18,2 C 91 % 1 lf 1018,0 hPa 0,0 l/m 0,00 h 0,03 h 0 W/m 8,3 km/h (2 Bft)
16.07.2015 01:00 19,3 C 17,2 C 92 % 2 lf 1018,2 hPa 0,0 l/m 0,00 h 0,00 h 0 W/m 5,5 km/h (1 Bft)
16.07.2015 02:00 18,2 C 15,5 C 91 % 12 lf 1018,2 hPa 0,0 l/m 0,00 h 0,00 h 0 W/m 0,8 km/h (0 Bft)
16.07.2015 03:00 17,2 C 15,0 C 92 % 15 lf 1018,2 hPa 0,0 l/m 0,00 h 0,00 h 0 W/m 1,6 km/h (1 Bft)
16.07.2015 04:00 17,1 C 16,0 C 95 % 15 lf 1018,3 hPa 0,0 l/m 0,00 h 0,00 h 0 W/m 6,0 km/h (2 Bft)
16.07.2015 05:00 17,1 C 16,1 C 96 % 13 lf 1018,5 hPa 0,0 l/m 0,00 h 0,00 h 7 W/m 4,4 km/h (1 Bft)
16.07.2015 06:00 16,8 C 16,0 C 96 % 2 lf 1018,7 hPa 0,0 l/m 0,00 h 0,00 h 23 W/m 6,7 km/h (2 Bft)
16.07.2015 07:00 16,6 C 15,6 C 96 % 1 lf 1018,9 hPa 0,0 l/m 0,00 h 0,00 h 45 W/m 9,2 km/h (2 Bft)
16.07.2015 08:00 16,5 C 15,9 C 96 % 1 lf 1019,1 hPa 0,0 l/m 0,00 h 0,00 h 80 W/m 9,1 km/h (2 Bft)
16.07.2015 09:00 16,5 C 16,0 C 96 % 1 lf 1019,4 hPa 0,0 l/m 0,00 h 0,00 h 119 W/m 7,4 km/h (2 Bft)
16.07.2015 10:00 17,0 C 17,4 C 96 % 0 lf 1019,5 hPa 0,0 l/m 0,10 h 0,00 h 240 W/m 6,2 km/h (2 Bft)
16.07.2015 11:00 19,6 C 22,8 C 87 % 0 lf 1019,4 hPa 0,0 l/m 0,90 h 0,00 h 716 W/m 7,2 km/h (2 Bft)
16.07.2015 12:00 22,9 C 25,1 C 72 % 0 lf 1018,8 hPa 0,0 l/m 0,73 h 0,00 h 556 W/m 10,8 km/h (2 Bft)
16.07.2015 13:00 24,8 C 24,6 C 66 % 0 lf 1018,2 hPa 0,0 l/m 1,00 h 0,00 h 777 W/m 10,3 km/h (2 Bft)
16.07.2015 14:00 26,7 C 24,8 C 62 % 0 lf 1017,5 hPa 0,0 l/m 1,00 h 0,00 h 840 W/m 11,1 km/h (2 Bft)
16.07.2015 15:00 27,4 C 25,6 C 60 % 0 lf 1017,0 hPa 0,0 l/m 1,00 h 0,00 h 782 W/m 10,8 km/h (2 Bft)
16.07.2015 16:00 28,2 C 26,7 C 58 % 0 lf 1016,3 hPa 0,0 l/m 1,00 h 0,00 h 682 W/m 8,8 km/h (2 Bft)
16.07.2015 17:00 28,3 C 25,9 C 57 % 0 lf 1015,6 hPa 0,0 l/m 1,00 h 0,00 h 540 W/m 14,1 km/h (3 Bft)
16.07.2015 18:00 27,8 C 25,4 C 58 % 0 lf 1015,0 hPa 0,0 l/m 0,98 h 0,00 h 381 W/m 13,8 km/h (3 Bft)
16.07.2015 19:00 27,4 C 25,0 C 60 % 0 lf 1014,3 hPa 0,0 l/m 1,00 h 0,00 h 216 W/m 11,9 km/h (2 Bft)
16.07.2015 20:00 26,7 C 24,0 C 64 % 0 lf 1014,0 hPa 0,0 l/m 0,57 h 0,00 h 76 W/m 11,5 km/h (2 Bft)
16.07.2015 21:00 25,5 C 22,1 C 68 % 0 lf 1014,1 hPa 0,0 l/m 0,00 h 0,00 h 11 W/m 9,2 km/h (2 Bft)
16.07.2015 22:00 24,3 C 21,7 C 71 % 0 lf 1014,5 hPa 0,0 l/m 0,00 h 0,00 h 0 W/m 9,2 km/h (2 Bft)
16.07.2015 23:00 23,6 C 21,4 C 73 % 0 lf 1013,4 hPa 0,0 l/m 0,00 h 0,10 h 0 W/m 16,9 km/h (3 Bft)
17.07.2015 00:00 23,0 C 21,0 C 75 % 0 lf 1013,3 hPa 0,0 l/m 0,00 h 0,10 h 0 W/m 13,3 km/h (3 Bft)
17.07.2015 01:00 22,5 C 20,4 C 76 % 0 lf 1012,9 hPa 0,0 l/m 0,00 h 0,10 h 0 W/m 10,8 km/h (2 Bft)
17.07.2015 02:00 21,9 C 19,2 C 79 % 5 lf 1012,2 hPa 0,0 l/m 0,00 h 0,27 h 0 W/m 10,8 km/h (2 Bft)
17.07.2015 03:00 21,1 C 18,4 C 84 % 0 lf 1011,1 hPa 0,0 l/m 0,00 h 0,07 h 0 W/m 11,2 km/h (2 Bft)
17.07.2015 04:00 20,9 C 19,3 C 86 % 0 lf 1010,3 hPa 0,0 l/m 0,00 h 0,07 h 0 W/m 13,5 km/h (3 Bft)
17.07.2015 05:00 21,7 C 20,2 C 82 % 0 lf 1009,5 hPa 0,0 l/m 0,00 h 0,07 h 5 W/m 17,8 km/h (3 Bft)
17.07.2015 06:00 22,6 C 20,6 C 77 % 0 lf 1009,9 hPa 0,0 l/m 0,00 h 0,00 h 33 W/m 14,7 km/h (3 Bft)
17.07.2015 07:00 22,5 C 20,6 C 77 % 0 lf 1010,3 hPa 0,0 l/m 0,37 h 0,00 h 123 W/m 9,8 km/h (2 Bft)
17.07.2015 08:00 23,7 C 21,8 C 72 % 0 lf 1010,8 hPa 0,0 l/m 0,87 h 0,00 h 283 W/m 16,4 km/h (3 Bft)
17.07.2015 09:00 27,0 C 24,6 C 64 % 0 lf 1011,5 hPa 0,0 l/m 1,00 h 0,00 h 514 W/m 31,8 km/h (5 Bft)
17.07.2015 10:00 28,6 C 30,3 C 62 % 0 lf 1012,0 hPa 0,0 l/m 1,00 h 0,00 h 657 W/m 30,8 km/h (5 Bft)
17.07.2015 11:00 29,7 C 31,2 C 60 % 0 lf 1012,3 hPa 0,0 l/m 1,00 h 0,00 h 769 W/m 27,8 km/h (4 Bft)
17.07.2015 12:00 30,9 C 32,7 C 55 % 0 lf 1012,6 hPa 0,0 l/m 0,75 h 0,00 h 668 W/m 29,2 km/h (5 Bft)
17.07.2015 13:00 31,7 C 30,6 C 50 % 0 lf 1012,6 hPa 0,0 l/m 1,00 h 0,00 h 864 W/m 29,8 km/h (5 Bft)
17.07.2015 14:00 32,7 C 30,7 C 46 % 0 lf 1012,5 hPa 0,0 l/m 1,00 h 0,00 h 844 W/m 27,8 km/h (4 Bft)
17.07.2015 15:00 33,5 C 31,1 C 44 % 0 lf 1012,3 hPa 0,0 l/m 1,00 h 0,00 h 781 W/m 27,8 km/h (4 Bft)
17.07.2015 16:00 33,7 C 31,7 C 40 % 0 lf 1012,0 hPa 0,0 l/m 1,00 h 0,00 h 680 W/m 29,8 km/h (5 Bft)
17.07.2015 17:00 33,4 C 30,0 C 42 % 0 lf 1011,5 hPa 0,0 l/m 1,00 h 0,00 h 545 W/m 22,4 km/h (4 Bft)
17.07.2015 18:00 31,5 C 28,1 C 47 % 0 lf 1011,4 hPa 0,0 l/m 0,97 h 0,00 h 384 W/m 19,4 km/h (3 Bft)
17.07.2015 19:00 30,0 C 27,1 C 54 % 0 lf 1011,4 hPa 0,0 l/m 0,97 h 0,00 h 234 W/m 16,0 km/h (3 Bft)
17.07.2015 20:00 28,6 C 25,9 C 58 % 0 lf 1011,7 hPa 0,0 l/m 0,57 h 0,00 h 80 W/m 11,9 km/h (2 Bft)
17.07.2015 21:00 26,9 C 24,1 C 64 % 0 lf 1012,3 hPa 0,0 l/m 0,00 h 0,00 h 15 W/m 9,8 km/h (2 Bft)
17.07.2015 22:00 24,8 C 22,3 C 71 % 0 lf 1013,2 hPa 0,0 l/m 0,00 h 0,00 h 0 W/m 10,1 km/h (2 Bft)
17.07.2015 23:00 23,3 C 20,1 C 75 % 0 lf 1013,4 hPa 0,0 l/m 0,00 h 0,00 h 0 W/m 0,2 km/h (0 Bft)
18.07.2015 00:00 21,9 C 19,1 C 80 % 0 lf 1013,6 hPa 0,0 l/m 0,00 h 0,00 h 0 W/m 2,4 km/h (1 Bft)
18.07.2015 01:00 21,0 C 19,1 C 84 % 0 lf 1014,1 hPa 0,0 l/m 0,00 h 0,00 h 0 W/m 9,8 km/h (2 Bft)
18.07.2015 02:00 20,6 C 19,2 C 84 % 0 lf 1014,6 hPa 0,0 l/m 0,00 h 0,00 h 0 W/m 16,9 km/h (3 Bft)
18.07.2015 03:00 20,3 C 18,3 C 84 % 9 lf 1014,9 hPa 0,0 l/m 0,00 h 0,17 h 0 W/m 12,4 km/h (3 Bft)
18.07.2015 04:00 19,5 C 17,2 C 88 % 15 lf 1015,2 hPa 0,0 l/m 0,00 h 0,13 h 0 W/m 7,5 km/h (2 Bft)
18.07.2015 05:00 18,6 C 17,2 C 90 % 6 lf 1015,8 hPa 0,0 l/m 0,00 h 0,00 h 7 W/m 12,1 km/h (2 Bft)
18.07.2015 06:00 17,8 C 16,3 C 88 % 0 lf 1016,0 hPa 0,0 l/m 0,23 h 0,00 h 48 W/m 8,6 km/h (2 Bft)
18.07.2015 07:00 17,6 C 16,8 C 87 % 0 lf 1016,4 hPa 0,0 l/m 0,90 h 0,00 h 143 W/m 16,2 km/h (3 Bft)
18.07.2015 08:00 17,8 C 17,1 C 83 % 0 lf 1016,4 hPa 0,0 l/m 0,80 h 0,00 h 236 W/m 13,0 km/h (3 Bft)
18.07.2015 09:00 18,8 C 17,9 C 79 % 0 lf 1016,6 hPa 0,0 l/m 0,63 h 0,00 h 322 W/m 14,7 km/h (3 Bft)
18.07.2015 10:00 20,9 C 21,5 C 75 % 0 lf 1017,0 hPa 0,0 l/m 1,00 h 0,00 h 470 W/m 13,5 km/h (3 Bft)
18.07.2015 11:00 21,5 C 21,4 C 71 % 0 lf 1017,6 hPa 0,0 l/m 0,63 h 0,00 h 400 W/m 15,8 km/h (3 Bft)
18.07.2015 12:00 23,1 C 24,5 C 65 % 0 lf 1017,6 hPa 0,0 l/m 0,70 h 0,00 h 564 W/m 18,2 km/h (3 Bft)
18.07.2015 13:00 24,6 C 24,8 C 58 % 0 lf 1017,3 hPa 0,0 l/m 0,87 h 0,00 h 814 W/m 21,4 km/h (4 Bft)
18.07.2015 14:00 26,6 C 25,5 C 51 % 0 lf 1017,0 hPa 0,0 l/m 0,90 h 0,00 h 873 W/m 21,3 km/h (4 Bft)
18.07.2015 15:00 27,4 C 25,4 C 48 % 0 lf 1016,5 hPa 0,0 l/m 1,02 h 0,00 h 819 W/m 21,5 km/h (4 Bft)
18.07.2015 16:00 27,0 C 26,2 C 48 % 0 lf 1016,0 hPa 0,0 l/m 0,93 h 0,00 h 743 W/m 19,6 km/h (3 Bft)
18.07.2015 17:00 27,5 C 25,2 C 46 % 0 lf 1015,7 hPa 0,0 l/m 1,00 h 0,00 h 596 W/m 19,7 km/h (3 Bft)
18.07.2015 18:00 25,8 C 23,4 C 48 % 0 lf 1015,3 hPa 0,0 l/m 0,57 h 0,00 h 270 W/m 15,6 km/h (3 Bft)
18.07.2015 19:00 24,5 C 22,6 C 51 % 0 lf 1015,1 hPa 0,0 l/m 0,17 h 0,00 h 144 W/m 11,3 km/h (2 Bft)
18.07.2015 20:00 23,6 C 21,7 C 53 % 0 lf 1015,2 hPa 0,0 l/m 0,57 h 0,00 h 97 W/m 10,7 km/h (2 Bft)
18.07.2015 21:00 22,3 C 19,2 C 57 % 0 lf 1015,2 hPa 0,0 l/m 0,00 h 0,00 h 15 W/m 4,6 km/h (1 Bft)
18.07.2015 22:00 20,6 C 17,2 C 63 % 0 lf 1015,2 hPa 0,0 l/m 0,00 h 0,00 h 0 W/m 3,8 km/h (1 Bft)
18.07.2015 23:00 19,3 C 16,8 C 68 % 0 lf 1015,0 hPa 0,0 l/m 0,00 h 0,00 h 0 W/m 6,3 km/h (2 Bft)
19.07.2015 00:00 18,4 C 16,3 C 72 % 0 lf 1014,4 hPa 0,0 l/m 0,00 h 0,00 h 0 W/m 8,7 km/h (2 Bft)
19.07.2015 01:00 18,0 C 16,7 C 73 % 0 lf 1013,8 hPa 0,0 l/m 0,00 h 0,00 h 0 W/m 10,6 km/h (2 Bft)
19.07.2015 02:00 17,9 C 16,7 C 74 % 0 lf 1012,8 hPa 0,0 l/m 0,00 h 0,00 h 0 W/m 11,6 km/h (2 Bft)
19.07.2015 03:00 17,8 C 15,1 C 80 % 12 lf 1012,6 hPa 5,4 l/m 0,00 h 0,83 h 0 W/m 6,8 km/h (2 Bft)
19.07.2015 04:00 16,6 C 14,2 C 89 % 15 lf 1012,7 hPa 6,0 l/m 0,00 h 1,00 h 0 W/m 5,8 km/h (2 Bft)
19.07.2015 05:00 15,8 C 14,3 C 93 % 15 lf 1011,1 hPa 0,8 l/m 0,00 h 1,00 h 0 W/m 12,3 km/h (3 Bft)
19.07.2015 06:00 15,7 C 14,2 C 95 % 15 lf 1010,6 hPa 2,6 l/m 0,00 h 0,97 h 11 W/m 11,0 km/h (2 Bft)
19.07.2015 07:00 15,2 C 14,0 C 96 % 15 lf 1009,4 hPa 0,2 l/m 0,00 h 0,17 h 47 W/m 9,7 km/h (2 Bft)
19.07.2015 08:00 15,5 C 14,4 C 96 % 14 lf 1009,4 hPa 0,0 l/m 0,00 h 0,00 h 93 W/m 5,6 km/h (1 Bft)
19.07.2015 09:00 16,5 C 15,5 C 96 % 4 lf 1009,2 hPa 0,0 l/m 0,57 h 0,00 h 342 W/m 6,2 km/h (2 Bft)
19.07.2015 10:00 18,2 C 16,6 C 92 % 0 lf 1009,0 hPa 0,0 l/m 0,17 h 0,00 h 283 W/m 10,4 km/h (2 Bft)
19.07.2015 11:00 18,9 C 17,2 C 89 % 1 lf 1009,0 hPa 0,0 l/m 0,07 h 0,30 h 285 W/m 8,8 km/h (2 Bft)
19.07.2015 12:00 19,7 C 17,3 C 88 % 0 lf 1009,3 hPa 0,0 l/m 0,00 h 0,03 h 180 W/m 12,4 km/h (3 Bft)
19.07.2015 13:00 19,5 C 18,4 C 88 % 0 lf 1009,5 hPa 0,0 l/m 0,00 h 0,00 h 176 W/m 16,3 km/h (3 Bft)
19.07.2015 14:00 20,2 C 19,5 C 85 % 0 lf 1009,4 hPa 0,0 l/m 0,13 h 0,00 h 246 W/m 24,1 km/h (4 Bft)
19.07.2015 15:00 19,9 C 18,5 C 85 % 0 lf 1009,7 hPa 0,0 l/m 0,00 h 0,07 h 121 W/m 19,6 km/h (3 Bft)
19.07.2015 16:00 20,0 C 19,5 C 85 % 0 lf 1010,2 hPa 0,0 l/m 0,20 h 0,00 h 268 W/m 17,8 km/h (3 Bft)
19.07.2015 17:00 20,9 C 20,3 C 81 % 0 lf 1010,4 hPa 0,0 l/m 0,40 h 0,00 h 276 W/m 16,5 km/h (3 Bft)
19.07.2015 18:00 21,3 C 20,0 C 78 % 0 lf 1010,4 hPa 0,0 l/m 0,30 h 0,00 h 240 W/m 18,5 km/h (3 Bft)
19.07.2015 19:00 21,3 C 19,6 C 76 % 0 lf 1010,6 hPa 0,0 l/m 0,70 h 0,00 h 181 W/m 17,6 km/h (3 Bft)
19.07.2015 20:00 20,9 C 18,8 C 76 % 0 lf 1010,7 hPa 0,0 l/m 0,43 h 0,00 h 75 W/m 11,0 km/h (2 Bft)
19.07.2015 21:00 20,2 C 17,1 C 79 % 0 lf 1011,0 hPa 0,0 l/m 0,00 h 0,00 h 12 W/m 3,6 km/h (1 Bft)
19.07.2015 22:00 18,7 C 15,3 C 83 % 0 lf 1011,5 hPa 0,0 l/m 0,00 h 0,00 h 0 W/m 1,5 km/h (1 Bft)
19.07.2015 23:00 17,1 C 14,2 C 87 % 3 lf 1011,8 hPa 0,0 l/m 0,00 h 0,00 h 0 W/m 2,9 km/h (1 Bft)
Min-Datum _ 19.07.15 19.07.15 17.07.15 13.07.15 19.07.15 - - - - 15.07.15
_ Min-Zeit 07:24 03:34 16:24 00:00 11:40 - - - - 05:02
Minimum _ 15,1 C 13,9 C 37 % 0 lf 1008,6 hPa - - - - 0,0 km/h (0 Bft)
Max-Datum _ 17.07.15 17.07.15 14.07.15 13.07.15 16.07.15 19.07.15 13.07.15 13.07.15 18.07.15 17.07.15
_ Max-Zeit 16:12 12:12 01:20 10:14 09:48 04:12 15:06 08:52 12:54 09:22
Maximum _ 33,8 C 33,9 C 98 % 15 lf 1019,6 hPa 6,0 l/m 0,03 h 0,03 h 990 W/m 48,1 km/h
W-SW (6 Bft)
Durchschnitt _ 20,8 C 19,4 C 80 % 3 lf 1015,1 hPa #19,0 l/m #41:15 h #13:37 h 263 W/m 13,9 km/h (3 Bft)
© 2015 W. Hausmann